CAUA4: Poteau River At Cauthron, AR

Data processed at Tue May 21 2019 22:30


All information presented herein is the property of the government of the United States of America and may be revised or deleted at any time without prior notice.
Dissemination of this information without the expressed written consent of the Public Affairs Office, Tulsa District U.S. Army Corps of Engineers is strictly prohibited.
These data are gathered electronically and, as presented, have not undergone any form of quality control. These data are not guaranteed to be valid or correct.
Go to home page.
Go to station list.
Go to home page.

Downstream station:


Previous Day
Next Day
Current Day
    
SHEF ID:       CAUA4     Poteau River at Cauthron, AR
STATION TYPE:  
Regulating: Stage =    17.00, Flow =     9394

               PRECIP     STAGE  RIV-FLOW  BAT-LOAD
                   in        ft       cfs      volt
              Ccp-Rev   Ccp-Rev   Ccp-Rev   Ccp-Rev
(US/Central)
05/21 00:00      0.00      5.13       201     12.60
05/21 01:00      0.00      5.13       201     12.60
05/21 02:00      0.00      5.12       196     12.60
05/21 03:00      0.00      5.12       196     12.60
05/21 04:00      0.00      5.11       192     12.54
05/21 05:00      0.00      5.11       192     12.54
05/21 06:00      0.00      5.11       192     12.54
05/21 07:00      0.00      5.10       188     12.54
05/21 08:00      0.00      5.10       188     12.54
05/21 09:00      0.00      5.04       166     12.77
05/21 10:00      0.00      5.06       173     13.30
05/21 11:00      0.00      5.09       184     12.77
05/21 12:00      0.00      5.07       177     12.65
05/21 13:00      0.01      5.05       169     12.65
05/21 14:00      0.00      5.23       245     12.65
05/21 15:00      0.01      4.00         2     12.65
05/21 16:00      0.00      5.60       464     12.71
05/21 17:00      0.00      5.70       540     12.95
05/21 18:00      0.00      5.76       590     12.89
05/21 19:00      0.00      5.81       633     12.83
05/21 20:00      0.00      5.82       642     12.65
05/21 21:00      0.00      5.81       633     12.60
05/21 22:00      ----      ----      ----      ----
05/21 23:00      ----      ----      ----      ----